EFW2BZ EGKK-LEMG
Flight info
| Callsign | EFW2BZ |
|---|---|
| Flight time | N/A |
| Altitude | 35000 |
| Route | IMVUR1Z IMVUR N63 SAM M195 MARUK N621 LELNA DCT NOVAN DCT DELOG DCT CRISA N864 VULPE VULPE2A |
| Aircraft | A321/M-SDE3FGIJ1RWXY/SB1 |
Departure
| Time | N/A |
|---|---|
| Airport | London Gatwick Airport (EGKK) |
Arrival
| Time | 2026-05-06 19:25 |
|---|---|
| Airport | Málaga-Costa del Sol Airport (LEMG) |
| Time | Latitude | Longitude | Altitude | Speed | Heading |
|---|---|---|---|---|---|
| 2026-05-06 18:06 | 45.02732 | -3.88870 | 35007 ft | 448 kts | 187° |
| 2026-05-06 18:06 | 44.99636 | -3.89316 | 35007 ft | 447 kts | 187° |
| 2026-05-06 18:06 | 44.93443 | -3.90197 | 35008 ft | 447 kts | 187° |
| 2026-05-06 18:07 | 44.87247 | -3.91080 | 35008 ft | 448 kts | 187° |
| 2026-05-06 18:07 | 44.81049 | -3.91959 | 35008 ft | 448 kts | 187° |
| 2026-05-06 18:08 | 44.74847 | -3.92842 | 35012 ft | 448 kts | 187° |
| 2026-05-06 18:08 | 44.68641 | -3.93736 | 35017 ft | 448 kts | 187° |
| 2026-05-06 18:09 | 44.62431 | -3.94613 | 35020 ft | 449 kts | 187° |
| 2026-05-06 18:09 | 44.56217 | -3.95490 | 35024 ft | 449 kts | 187° |
| 2026-05-06 18:10 | 44.50001 | -3.96356 | 35022 ft | 449 kts | 187° |
| 2026-05-06 18:10 | 44.43824 | -3.97218 | 35027 ft | 449 kts | 187° |
| 2026-05-06 18:11 | 44.37607 | -3.98089 | 35029 ft | 449 kts | 187° |
| 2026-05-06 18:11 | 44.31388 | -3.98952 | 35027 ft | 449 kts | 187° |
| 2026-05-06 18:12 | 44.25160 | -3.99699 | 35030 ft | 449 kts | 186° |
| 2026-05-06 18:12 | 44.18928 | -4.00379 | 35030 ft | 449 kts | 186° |
| 2026-05-06 18:13 | 44.12703 | -4.01061 | 35019 ft | 449 kts | 186° |
| 2026-05-06 18:13 | 44.06486 | -4.01766 | 35027 ft | 448 kts | 186° |
| 2026-05-06 18:14 | 44.00275 | -4.02471 | 35028 ft | 448 kts | 186° |
| 2026-05-06 18:14 | 43.94069 | -4.03178 | 35019 ft | 447 kts | 187° |
| 2026-05-06 18:15 | 43.87916 | -4.03885 | 35026 ft | 446 kts | 187° |
| 2026-05-06 18:15 | 43.81728 | -4.04591 | 35030 ft | 446 kts | 187° |
| 2026-05-06 18:16 | 43.75547 | -4.05280 | 35026 ft | 446 kts | 187° |
| 2026-05-06 18:16 | 43.69368 | -4.05973 | 35030 ft | 445 kts | 187° |
| 2026-05-06 18:17 | 43.63193 | -4.06670 | 35033 ft | 445 kts | 187° |
| 2026-05-06 18:17 | 43.57023 | -4.07370 | 35041 ft | 445 kts | 187° |
| 2026-05-06 18:18 | 43.50853 | -4.08059 | 35042 ft | 445 kts | 187° |
| 2026-05-06 18:18 | 43.44683 | -4.08746 | 35048 ft | 445 kts | 187° |
| 2026-05-06 18:19 | 43.38521 | -4.09443 | 35046 ft | 444 kts | 187° |
| 2026-05-06 18:19 | 43.32355 | -4.10136 | 35042 ft | 444 kts | 187° |
| 2026-05-06 18:20 | 43.26192 | -4.10812 | 35043 ft | 444 kts | 187° |
| 2026-05-06 18:20 | 43.20031 | -4.11487 | 35048 ft | 444 kts | 187° |
| 2026-05-06 18:21 | 43.13868 | -4.12166 | 35032 ft | 444 kts | 187° |
| 2026-05-06 18:21 | 43.07755 | -4.12841 | 35037 ft | 444 kts | 187° |
| 2026-05-06 18:22 | 43.01602 | -4.13525 | 35033 ft | 444 kts | 187° |
| 2026-05-06 18:22 | 42.95450 | -4.14193 | 35038 ft | 443 kts | 187° |
| 2026-05-06 18:23 | 42.89306 | -4.14868 | 35026 ft | 443 kts | 187° |
| 2026-05-06 18:23 | 42.83169 | -4.15548 | 35029 ft | 442 kts | 187° |
| 2026-05-06 18:24 | 42.77034 | -4.16213 | 35023 ft | 442 kts | 187° |
| 2026-05-06 18:24 | 42.70894 | -4.16872 | 35020 ft | 442 kts | 187° |
| 2026-05-06 18:25 | 42.64761 | -4.17541 | 35011 ft | 442 kts | 187° |
| 2026-05-06 18:25 | 42.58624 | -4.18213 | 35004 ft | 442 kts | 187° |
| 2026-05-06 18:26 | 42.52489 | -4.18880 | 34985 ft | 442 kts | 187° |
| 2026-05-06 18:26 | 42.46362 | -4.19547 | 35003 ft | 442 kts | 187° |
| 2026-05-06 18:27 | 42.40238 | -4.20200 | 34992 ft | 441 kts | 187° |
| 2026-05-06 18:27 | 42.34118 | -4.20853 | 34988 ft | 441 kts | 187° |
| 2026-05-06 18:28 | 42.27996 | -4.21519 | 34982 ft | 441 kts | 187° |
| 2026-05-06 18:28 | 42.21874 | -4.22183 | 34986 ft | 441 kts | 187° |
| 2026-05-06 18:29 | 42.15755 | -4.22837 | 34982 ft | 441 kts | 187° |
| 2026-05-06 18:29 | 42.09641 | -4.23491 | 34966 ft | 440 kts | 187° |
| 2026-05-06 18:30 | 42.03535 | -4.24141 | 34974 ft | 440 kts | 187° |
| 2026-05-06 18:30 | 41.97437 | -4.24789 | 34977 ft | 440 kts | 187° |
| 2026-05-06 18:31 | 41.91380 | -4.25434 | 34976 ft | 439 kts | 187° |
| 2026-05-06 18:31 | 41.85288 | -4.26079 | 34970 ft | 439 kts | 187° |
| 2026-05-06 18:32 | 41.79192 | -4.26719 | 34970 ft | 439 kts | 187° |
| 2026-05-06 18:32 | 41.73105 | -4.27363 | 34970 ft | 439 kts | 187° |
| 2026-05-06 18:33 | 41.67024 | -4.28013 | 34962 ft | 438 kts | 187° |
| 2026-05-06 18:33 | 41.60948 | -4.28660 | 34965 ft | 438 kts | 187° |
| 2026-05-06 18:34 | 41.54874 | -4.29290 | 34971 ft | 438 kts | 187° |
| 2026-05-06 18:34 | 41.48804 | -4.29921 | 34968 ft | 438 kts | 187° |
| 2026-05-06 18:35 | 41.42735 | -4.30555 | 34963 ft | 437 kts | 187° |
| 2026-05-06 18:35 | 41.36675 | -4.31197 | 34971 ft | 436 kts | 188° |
| 2026-05-06 18:36 | 41.30624 | -4.31831 | 34969 ft | 436 kts | 187° |
| 2026-05-06 18:36 | 41.24575 | -4.32458 | 34962 ft | 436 kts | 188° |
| 2026-05-06 18:37 | 41.19551 | -4.32982 | 34970 ft | 435 kts | 188° |
| 2026-05-06 18:37 | 41.12489 | -4.33717 | 34970 ft | 435 kts | 188° |
| 2026-05-06 18:38 | 41.06455 | -4.34333 | 34968 ft | 435 kts | 187° |
| 2026-05-06 18:38 | 41.00423 | -4.34953 | 34959 ft | 435 kts | 188° |
| 2026-05-06 18:39 | 40.94398 | -4.35577 | 34959 ft | 434 kts | 188° |
| 2026-05-06 18:40 | 40.85405 | -4.36498 | 34964 ft | 434 kts | 188° |
| 2026-05-06 18:40 | 40.79383 | -4.37114 | 34946 ft | 434 kts | 188° |
| 2026-05-06 18:41 | 40.73364 | -4.37728 | 34953 ft | 434 kts | 188° |
| 2026-05-06 18:41 | 40.67351 | -4.38348 | 34955 ft | 434 kts | 188° |
| 2026-05-06 18:42 | 40.61334 | -4.38967 | 34951 ft | 434 kts | 188° |
| 2026-05-06 18:42 | 40.55322 | -4.39583 | 34942 ft | 434 kts | 188° |
| 2026-05-06 18:43 | 40.49307 | -4.40203 | 34946 ft | 434 kts | 188° |
| 2026-05-06 18:43 | 40.43289 | -4.40809 | 34937 ft | 434 kts | 188° |
| 2026-05-06 18:44 | 40.37276 | -4.41411 | 34912 ft | 433 kts | 188° |
| 2026-05-06 18:44 | 40.31263 | -4.42020 | 34922 ft | 433 kts | 188° |
| 2026-05-06 18:45 | 40.25249 | -4.42628 | 34915 ft | 433 kts | 188° |
| 2026-05-06 18:45 | 40.19240 | -4.43241 | 34912 ft | 433 kts | 188° |
| 2026-05-06 18:46 | 40.13232 | -4.43842 | 34910 ft | 433 kts | 188° |
| 2026-05-06 18:46 | 40.07221 | -4.44436 | 34912 ft | 433 kts | 188° |
| 2026-05-06 18:47 | 40.01209 | -4.45045 | 34910 ft | 433 kts | 188° |
| 2026-05-06 18:47 | 39.95202 | -4.45653 | 34912 ft | 433 kts | 188° |
| 2026-05-06 18:48 | 39.89196 | -4.46248 | 34902 ft | 433 kts | 188° |
| 2026-05-06 18:48 | 39.84207 | -4.46737 | 34907 ft | 432 kts | 188° |
| 2026-05-06 18:49 | 39.78210 | -4.47340 | 34909 ft | 432 kts | 188° |
| 2026-05-06 18:49 | 39.72211 | -4.47954 | 34911 ft | 432 kts | 188° |
| 2026-05-06 18:50 | 39.66218 | -4.48541 | 34903 ft | 432 kts | 188° |
| 2026-05-06 18:50 | 39.60223 | -4.49124 | 34907 ft | 432 kts | 188° |
| 2026-05-06 18:51 | 39.54228 | -4.49713 | 34918 ft | 432 kts | 188° |
| 2026-05-06 18:51 | 39.48232 | -4.50313 | 34898 ft | 432 kts | 189° |
| 2026-05-06 18:52 | 39.42243 | -4.50906 | 34906 ft | 432 kts | 189° |
| 2026-05-06 18:52 | 39.36251 | -4.51493 | 34904 ft | 432 kts | 188° |
| 2026-05-06 18:53 | 39.30259 | -4.52081 | 34907 ft | 432 kts | 189° |
| 2026-05-06 18:53 | 39.24266 | -4.52674 | 34894 ft | 432 kts | 189° |
| 2026-05-06 18:54 | 39.18279 | -4.53262 | 34904 ft | 431 kts | 189° |
| 2026-05-06 18:54 | 39.12296 | -4.53847 | 34904 ft | 431 kts | 189° |
| 2026-05-06 18:55 | 39.06313 | -4.54436 | 34905 ft | 431 kts | 189° |
| 2026-05-06 18:55 | 39.00336 | -4.55018 | 34880 ft | 430 kts | 189° |
| 2026-05-06 18:56 | 38.94365 | -4.55600 | 34896 ft | 430 kts | 189° |
| 2026-05-06 18:56 | 38.88454 | -4.56547 | 34892 ft | 427 kts | 194° |
| 2026-05-06 18:57 | 38.82622 | -4.57885 | 34893 ft | 426 kts | 194° |
| 2026-05-06 18:57 | 38.76771 | -4.59221 | 34873 ft | 428 kts | 194° |
| 2026-05-06 18:58 | 38.70883 | -4.60460 | 34868 ft | 429 kts | 193° |
| 2026-05-06 18:58 | 38.64981 | -4.61664 | 34874 ft | 430 kts | 193° |
| 2026-05-06 18:59 | 38.59069 | -4.62874 | 34871 ft | 430 kts | 193° |
| 2026-05-06 18:59 | 38.53155 | -4.64091 | 34874 ft | 430 kts | 193° |
| 2026-05-06 19:00 | 38.47251 | -4.65315 | 34865 ft | 430 kts | 193° |
| 2026-05-06 19:00 | 38.44304 | -4.65926 | 34632 ft | 428 kts | 193° |
| 2026-05-06 19:00 | 38.41368 | -4.66534 | 34388 ft | 427 kts | 193° |
| 2026-05-06 19:00 | 38.38436 | -4.67141 | 34108 ft | 427 kts | 193° |
| 2026-05-06 19:01 | 38.35499 | -4.67744 | 33285 ft | 429 kts | 193° |
| 2026-05-06 19:01 | 38.32544 | -4.68349 | 32459 ft | 430 kts | 193° |
| 2026-05-06 19:01 | 38.29578 | -4.68955 | 31568 ft | 433 kts | 193° |
| 2026-05-06 19:01 | 38.26605 | -4.69565 | 30795 ft | 432 kts | 193° |
| 2026-05-06 19:02 | 38.23663 | -4.70167 | 30297 ft | 425 kts | 193° |
| 2026-05-06 19:02 | 38.20758 | -4.70763 | 29690 ft | 421 kts | 193° |
| 2026-05-06 19:02 | 38.17888 | -4.71353 | 29107 ft | 415 kts | 193° |
| 2026-05-06 19:02 | 38.15056 | -4.71932 | 28549 ft | 409 kts | 193° |
| 2026-05-06 19:03 | 38.12266 | -4.72499 | 27996 ft | 404 kts | 193° |
| 2026-05-06 19:03 | 38.09507 | -4.73057 | 27439 ft | 399 kts | 193° |
| 2026-05-06 19:03 | 38.06821 | -4.73602 | 26928 ft | 394 kts | 193° |
| 2026-05-06 19:03 | 38.04137 | -4.74145 | 26398 ft | 388 kts | 193° |
| 2026-05-06 19:04 | 38.01487 | -4.74686 | 25882 ft | 383 kts | 193° |
| 2026-05-06 19:04 | 37.98870 | -4.75223 | 25361 ft | 379 kts | 193° |
| 2026-05-06 19:04 | 37.96285 | -4.75754 | 24843 ft | 375 kts | 193° |
| 2026-05-06 19:04 | 37.93723 | -4.76278 | 24357 ft | 371 kts | 193° |
| 2026-05-06 19:05 | 37.91187 | -4.76796 | 23873 ft | 368 kts | 192° |
| 2026-05-06 19:05 | 37.88670 | -4.77307 | 23403 ft | 364 kts | 192° |
| 2026-05-06 19:05 | 37.86187 | -4.77809 | 22910 ft | 359 kts | 192° |
| 2026-05-06 19:05 | 37.83738 | -4.78302 | 22470 ft | 353 kts | 192° |
| 2026-05-06 19:06 | 37.81330 | -4.78787 | 22045 ft | 348 kts | 192° |
| 2026-05-06 19:06 | 37.78952 | -4.79268 | 21624 ft | 345 kts | 192° |
| 2026-05-06 19:06 | 37.76586 | -4.79737 | 21208 ft | 344 kts | 189° |
| 2026-05-06 19:06 | 37.74198 | -4.79875 | 20788 ft | 344 kts | 184° |
| 2026-05-06 19:07 | 37.71811 | -4.79891 | 20349 ft | 342 kts | 183° |
| 2026-05-06 19:07 | 37.69439 | -4.79903 | 19921 ft | 340 kts | 183° |
| 2026-05-06 19:07 | 37.67079 | -4.79913 | 19476 ft | 338 kts | 183° |
| 2026-05-06 19:07 | 37.64737 | -4.79923 | 19034 ft | 336 kts | 183° |
| 2026-05-06 19:08 | 37.62405 | -4.79935 | 18587 ft | 334 kts | 182° |
| 2026-05-06 19:08 | 37.60091 | -4.79953 | 18137 ft | 332 kts | 182° |
| 2026-05-06 19:08 | 37.57788 | -4.79972 | 17642 ft | 330 kts | 182° |
| 2026-05-06 19:08 | 37.55501 | -4.79991 | 17180 ft | 328 kts | 182° |
| 2026-05-06 19:09 | 37.53227 | -4.80010 | 16728 ft | 326 kts | 182° |
| 2026-05-06 19:09 | 37.50968 | -4.80028 | 16271 ft | 324 kts | 182° |
| 2026-05-06 19:09 | 37.48725 | -4.80045 | 15817 ft | 322 kts | 182° |
| 2026-05-06 19:09 | 37.46493 | -4.80062 | 15355 ft | 320 kts | 182° |
| 2026-05-06 19:10 | 37.44307 | -4.80080 | 14918 ft | 318 kts | 181° |
| 2026-05-06 19:10 | 37.42099 | -4.80096 | 14467 ft | 316 kts | 181° |
| 2026-05-06 19:10 | 37.39905 | -4.80108 | 14021 ft | 314 kts | 181° |
| 2026-05-06 19:10 | 37.37725 | -4.80121 | 13552 ft | 312 kts | 181° |
| 2026-05-06 19:11 | 37.35554 | -4.80136 | 13075 ft | 311 kts | 181° |
| 2026-05-06 19:11 | 37.33400 | -4.80150 | 12739 ft | 305 kts | 181° |
| 2026-05-06 19:11 | 37.31329 | -4.80162 | 12683 ft | 290 kts | 181° |
| 2026-05-06 19:11 | 37.29360 | -4.80176 | 12613 ft | 276 kts | 181° |
| 2026-05-06 19:12 | 37.27795 | -4.80188 | 12564 ft | 266 kts | 181° |
| 2026-05-06 19:12 | 37.26012 | -4.80200 | 12502 ft | 259 kts | 181° |
| 2026-05-06 19:12 | 37.24213 | -4.80213 | 12397 ft | 258 kts | 181° |
| 2026-05-06 19:12 | 37.22419 | -4.80227 | 12289 ft | 258 kts | 181° |
| 2026-05-06 19:13 | 37.20626 | -4.80240 | 12177 ft | 257 kts | 181° |
| 2026-05-06 19:13 | 37.18832 | -4.80247 | 11945 ft | 259 kts | 181° |
| 2026-05-06 19:13 | 37.17027 | -4.80235 | 11567 ft | 259 kts | 180° |
| 2026-05-06 19:13 | 37.15223 | -4.80210 | 11223 ft | 259 kts | 180° |
| 2026-05-06 19:14 | 37.13424 | -4.80184 | 10876 ft | 258 kts | 180° |
| 2026-05-06 19:14 | 37.11632 | -4.80162 | 10536 ft | 258 kts | 180° |
| 2026-05-06 19:14 | 37.09841 | -4.80141 | 10193 ft | 257 kts | 180° |
| 2026-05-06 19:14 | 37.08051 | -4.80121 | 9853 ft | 257 kts | 180° |
| 2026-05-06 19:15 | 37.06264 | -4.80100 | 9485 ft | 257 kts | 180° |
| 2026-05-06 19:15 | 37.04486 | -4.80077 | 9163 ft | 252 kts | 180° |
| 2026-05-06 19:15 | 37.02751 | -4.80055 | 8793 ft | 247 kts | 180° |
| 2026-05-06 19:15 | 37.01054 | -4.80033 | 8475 ft | 241 kts | 180° |
| 2026-05-06 19:16 | 36.99397 | -4.80013 | 8152 ft | 236 kts | 180° |
| 2026-05-06 19:16 | 36.97776 | -4.79997 | 7847 ft | 231 kts | 180° |
| 2026-05-06 19:16 | 36.96181 | -4.79984 | 7542 ft | 227 kts | 180° |
| 2026-05-06 19:16 | 36.94616 | -4.79972 | 7242 ft | 223 kts | 180° |
| 2026-05-06 19:17 | 36.93081 | -4.79848 | 6944 ft | 221 kts | 168° |
| 2026-05-06 19:17 | 36.91639 | -4.79280 | 6657 ft | 220 kts | 160° |
| 2026-05-06 19:17 | 36.90198 | -4.78642 | 6365 ft | 219 kts | 161° |
| 2026-05-06 19:17 | 36.88764 | -4.78017 | 6062 ft | 217 kts | 160° |
| 2026-05-06 19:18 | 36.87367 | -4.77411 | 5797 ft | 208 kts | 160° |
| 2026-05-06 19:18 | 36.86094 | -4.76652 | 5486 ft | 204 kts | 146° |
| 2026-05-06 19:18 | 36.85021 | -4.75382 | 5173 ft | 215 kts | 130° |
| 2026-05-06 19:18 | 36.83996 | -4.74159 | 5106 ft | 194 kts | 137° |
| 2026-05-06 19:19 | 36.83155 | -4.72925 | 4974 ft | 180 kts | 128° |
| 2026-05-06 19:19 | 36.82261 | -4.71880 | 4643 ft | 178 kts | 140° |
| 2026-05-06 19:19 | 36.81274 | -4.70903 | 4227 ft | 183 kts | 145° |
| 2026-05-06 19:19 | 36.80148 | -4.70167 | 3904 ft | 182 kts | 156° |
| 2026-05-06 19:20 | 36.78967 | -4.69621 | 3644 ft | 181 kts | 160° |
| 2026-05-06 19:20 | 36.77777 | -4.69116 | 3397 ft | 181 kts | 160° |
| 2026-05-06 19:20 | 36.76700 | -4.68359 | 3164 ft | 177 kts | 139° |
| 2026-05-06 19:20 | 36.75980 | -4.67186 | 2938 ft | 165 kts | 118° |
| 2026-05-06 19:21 | 36.75473 | -4.65972 | 2731 ft | 153 kts | 118° |
| 2026-05-06 19:21 | 36.74990 | -4.64818 | 2516 ft | 148 kts | 119° |
| 2026-05-06 19:21 | 36.74516 | -4.63687 | 2343 ft | 147 kts | 119° |
| 2026-05-06 19:21 | 36.74044 | -4.62559 | 2145 ft | 147 kts | 118° |
| 2026-05-06 19:22 | 36.73570 | -4.61427 | 1954 ft | 147 kts | 119° |
| 2026-05-06 19:22 | 36.73101 | -4.60308 | 1755 ft | 144 kts | 119° |
| 2026-05-06 19:22 | 36.72638 | -4.59202 | 1569 ft | 144 kts | 118° |
| 2026-05-06 19:22 | 36.72174 | -4.58096 | 1383 ft | 143 kts | 117° |
| 2026-05-06 19:23 | 36.71714 | -4.56999 | 1167 ft | 144 kts | 118° |
| 2026-05-06 19:23 | 36.71244 | -4.55878 | 990 ft | 146 kts | 118° |
| 2026-05-06 19:23 | 36.70775 | -4.54760 | 826 ft | 145 kts | 117° |
| 2026-05-06 19:23 | 36.70304 | -4.53652 | 627 ft | 144 kts | 116° |
| 2026-05-06 19:24 | 36.69846 | -4.52553 | 466 ft | 142 kts | 116° |
| 2026-05-06 19:24 | 36.69389 | -4.51463 | 235 ft | 141 kts | 116° |
| 2026-05-06 19:24 | 36.68944 | -4.50387 | 86 ft | 140 kts | 116° |
| 2026-05-06 19:24 | 36.68523 | -4.49385 | 47 ft | 111 kts | 118° |
| 2026-05-06 19:25 | 36.68241 | -4.48720 | 41 ft | 62 kts | 117° |
| 2026-05-06 19:25 | 36.68097 | -4.48376 | 38 ft | 39 kts | 117° |
| 2026-05-06 19:25 | 36.67995 | -4.48159 | 38 ft | 22 kts | 134° |
| 2026-05-06 19:25 | 36.67874 | -4.48088 | 36 ft | 9 kts | 163° |
| 2026-05-06 19:26 | 36.67810 | -4.48101 | 36 ft | 10 kts | 230° |
| 2026-05-06 19:26 | 36.67823 | -4.48177 | 38 ft | 10 kts | 298° |
| 2026-05-06 19:26 | 36.67857 | -4.48255 | 38 ft | 10 kts | 298° |
| 2026-05-06 19:26 | 36.67892 | -4.48337 | 39 ft | 11 kts | 297° |
| 2026-05-06 19:27 | 36.67929 | -4.48428 | 40 ft | 12 kts | 297° |
| 2026-05-06 19:27 | 36.67966 | -4.48518 | 40 ft | 8 kts | 297° |
| 2026-05-06 19:27 | 36.67996 | -4.48589 | 40 ft | 10 kts | 297° |
| 2026-05-06 19:27 | 36.68034 | -4.48677 | 39 ft | 12 kts | 298° |
| 2026-05-06 19:28 | 36.68076 | -4.48776 | 40 ft | 14 kts | 298° |
| 2026-05-06 19:28 | 36.68125 | -4.48889 | 40 ft | 15 kts | 298° |
| 2026-05-06 19:28 | 36.68176 | -4.49013 | 39 ft | 17 kts | 297° |
| 2026-05-06 19:28 | 36.68232 | -4.49147 | 38 ft | 18 kts | 297° |
| 2026-05-06 19:29 | 36.68273 | -4.49244 | 41 ft | 12 kts | 297° |
| 2026-05-06 19:29 | 36.68257 | -4.49345 | 40 ft | 14 kts | 224° |
| 2026-05-06 19:29 | 36.68185 | -4.49423 | 42 ft | 14 kts | 221° |
| 2026-05-06 19:29 | 36.68110 | -4.49506 | 42 ft | 15 kts | 221° |
| 2026-05-06 19:30 | 36.68026 | -4.49599 | 42 ft | 17 kts | 221° |
| 2026-05-06 19:30 | 36.67939 | -4.49695 | 42 ft | 13 kts | 221° |
| 2026-05-06 19:30 | 36.67866 | -4.49776 | 42 ft | 12 kts | 222° |
| 2026-05-06 19:30 | 36.67795 | -4.49789 | 42 ft | 12 kts | 143° |
| 2026-05-06 19:31 | 36.67735 | -4.49707 | 42 ft | 14 kts | 130° |
| 2026-05-06 19:31 | 36.67669 | -4.49613 | 42 ft | 15 kts | 132° |
| 2026-05-06 19:31 | 36.67636 | -4.49569 | 42 ft | 0 kts | 132° |
| 2026-05-06 19:32 | 36.67636 | -4.49568 | 42 ft | 1 kts | 132° |
| 2026-05-06 19:32 | 36.67618 | -4.49544 | 42 ft | 5 kts | 132° |
| 2026-05-06 19:33 | 36.67588 | -4.49503 | 42 ft | 8 kts | 132° |
| 2026-05-06 19:33 | 36.67555 | -4.49452 | 42 ft | 6 kts | 112° |
| 2026-05-06 19:33 | 36.67567 | -4.49403 | 40 ft | 5 kts | 68° |
| 2026-05-06 19:33 | 36.67560 | -4.49356 | 39 ft | 7 kts | 112° |
| 2026-05-06 19:34 | 36.67549 | -4.49327 | 42 ft | 0 kts | 115° |
| 2026-05-06 19:34 | 36.67548 | -4.49325 | 42 ft | 0 kts | 115° |